FACT/CPT METAR and TAF weather

Enter ICAO airport designator
Station Type Date Time Source
FACT METAR 2019/06/16 07:24 UTC NOAA

FACT 160724Z VRB02KT 8000 NSC 09/08 Q1020 NOSIG


Station Type Date Time Source
FACT Decoded METAR 2019/06/16 07:24 UTC NOAA

Cape Town, Cape Town International Airport, South Africa (FACT) 33-59S 018-36E 0M
Jun 16, 2019 - 03:24 AM EDT / 2019.06.16 0724 UTC
Wind: Variable at 2 MPH (2 KT):0
Visibility: 4 mile(s):0
Temperature: 48 F (9 C)
Dew Point: 46 F (8 C)
Relative Humidity: 93%
Pressure (altimeter): 30.12 in. Hg (1020 hPa)
ob: FACT 160724Z VRB02KT 8000 NSC 09/08 Q1020 NOSIG
cycle: 7

Station Type Date Time Source
FACT TAF 2019/06/16 06:35 UTC NOAA

TAF FACT 160400Z 1606/1712 VRB03KT CAVOK TX21/1612Z TN04/1606Z PROB40
TEMPO 1606/1607 1000 MIFG NSC PROB40
TEMPO 1620/1706 1000 MIFG NSC

Example: see airport list